• Join FlightAware (Why Join?)
  • Login
  • US Flag 
04:26PM EDT


 

Airport Tracker/Info


-or-


 

Live Flight TrackerFlight Track Log ✈ ASQ5025 ✈ 22-Apr-2013 ✈ KBTV - KLGA

Flight Track Log - Related Links

Times and Time Zones

All times are in EDT time to prevent confusion due to time zone crossing. See the ASQ5025 flight status page for this flight to view local times or setup timezone preferences in your user account.

Time Position Orientation Groundspeed Altitude Reporting Facility
EDT Latitude Longitude Course Direction KTS MPH feet Rate Location/Type
11:48AM 44.2944 -73.1825 192° South 261 300 8,800  Level Boston Center
11:49AM 44.2211 -73.2136 197° South 261 300 11,400 2,100 Climbing Boston Center
11:50AM 44.1356 -73.2472 196° South 297 342 13,100 2,100 Climbing Boston Center
11:51AM 44.0353 -73.2892 197° South 345 397 15,700 2,460 Climbing Boston Center
11:52AM 43.9230 -73.3575 196° South  Level FlightAware Approximate
11:52AM 43.9411 -73.3253 195° South 351 404 18,100  Level Boston Center
11:53AM 43.8445 -73.3833 192° South  Level FlightAware Approximate
11:53AM 43.8431 -73.3669 197° South 364 419 19,200  Level Boston Center
11:54AM 43.7739 -73.3947 196° South 364 419 20,200 1,260 Climbing Boston Center
11:55AM 43.6381 -73.4469 196° South 382 440 21,800 900 Climbing Boston Center
11:56AM 43.5503 -73.4828 196° South 394 453 22,000 60 Climbing Boston Center
11:57AM 43.4142 -73.5406 197° South 418 481 22,000  Level Boston Center
11:58AM 43.3033 -73.5842 196° South 418 481 22,000  Level Boston Center
11:59AM 43.1986 -73.6219 195° South 413 475 22,000 -60 Level Boston Center
12:00PM 43.1025 -73.6628 197° South 402 463 21,900  Descending Boston Center
12:01PM 42.9978 -73.7061 197° South 402 463 22,000  Climbing Boston Center
12:02PM 42.8911 -73.7494 197° South 402 463 22,000 -600 Level Boston Center
12:03PM 42.7800 -73.7894 195° South 402 463 20,900 -1,320 Descending Boston Center
12:04PM 42.6717 -73.7928 181° South 390 449 19,400 -1,380 Descending Boston Center
12:05PM 42.5489 -73.7619 170° South 390 449 18,200 -720 Descending Boston Center
12:06PM 42.4431 -73.7400 171° South 396 456 18,000 -120 Descending Boston Center
12:07PM 42.3411 -73.7181 171° South 388 447 18,000  Level Boston Center
12:08PM 42.2350 -73.7019 174° South 383 441 18,000  Level Boston Center
12:09PM 42.1311 -73.6803 171° South 383 441 18,000  Level Boston Center
12:10PM 42.0247 -73.6697 176° South 393 452 18,000 180 Level Boston Center
12:11PM 41.9142 -73.6872 187° South 393 452 18,400 -480 Climbing Boston Center
12:12PM 41.8056 -73.7100 189° South 398 458 17,100 -1,380 Descending Boston Center
12:13PM 41.6992 -73.7303 188° South 398 458 15,700 -1,500 Descending Boston Center
12:14PM 41.6281 -73.7425 187° South 381 438 14,200 -1,800 Descending Boston Center
12:15PM 41.5111 -73.7653 188° South 342 394 12,100 -1,980 Descending Boston Center
12:16PM 41.4333 -73.7833 190° South 279 321 10,100 -1,500 Descending New York TRACON
12:17PM 41.3500 -73.8000 189° South 269 310 9,000 -1,320 Descending New York TRACON
12:18PM 41.3000 -73.7500 143° Southeast 263 303 7,700 -1,320 Descending New York TRACON
12:19PM 41.2333 -73.7000 151° Southeast 258 297 6,500 -1,140 Descending New York TRACON
12:20PM 41.1833 -73.6500 143° Southeast 249 287 5,500 -1,020 Descending New York TRACON
12:21PM 41.1167 -73.6000 151° Southeast 243 280 4,500 -780 Descending New York TRACON
12:22PM 41.0667 -73.6500 217° Southwest 266 306 4,000 -300 Descending New York TRACON
12:23PM 41.0000 -73.7000 210° Southwest 256 295 4,000  Level New York TRACON
12:24PM 40.9500 -73.7667 225° Southwest 266 306 4,000  Level New York TRACON
12:25PM 40.9333 -73.8500 255° West 266 306 4,000  Level New York TRACON
12:26PM 40.8833 -73.9333 232° Southwest 257 296 4,000  Level New York TRACON
12:27PM 40.8167 -73.9667 201° Southwest 247 284 4,000  Level New York TRACON
12:28PM 40.7500 -74.0167 210° Southwest 253 291 4,000 -120 Level New York TRACON
12:29PM 40.7000 -74.0333 194° South 190 219 3,800 -720 Descending New York TRACON
12:30PM 40.6833 -73.9833 114° Southeast 168 193 2,700 -1,140 Descending New York TRACON
12:31PM 40.7000 -73.9333 66° East 159 183 1,700 -840 Descending New York TRACON
12:32PM 40.7333 -73.9167 21° North 118 136 1,100 -660 Descending New York TRACON
12:33PM 40.7667 -73.8833 37° Northeast 113 130 400 -660 Descending New York TRACON